createdAt,value
2019-02-26T00:02:07.209Z,102493.87
2019-02-26T00:04:36.927Z,102482.55
2019-02-26T00:07:05.779Z,102469.05
2019-02-26T00:09:35.373Z,102464.88
2019-02-26T00:12:04.472Z,102473.59
2019-02-26T00:14:33.515Z,102468.13
2019-02-26T00:17:06.212Z,102468.44
2019-02-26T00:19:32.732Z,102465.50
2019-02-26T00:22:01.484Z,102458.75
2019-02-26T00:24:30.756Z,102449.70
2019-02-26T00:27:01.598Z,102429.84
2019-02-26T00:29:32.177Z,102428.02
2019-02-26T00:32:01.462Z,102436.99
2019-02-26T00:34:32.162Z,102435.05
2019-02-26T00:37:01.770Z,102434.98
2019-02-26T00:39:31.556Z,102419.23
2019-02-26T00:42:02.523Z,102416.13
2019-02-26T00:44:32.710Z,102425.97
2019-02-26T00:47:02.544Z,102424.30
2019-02-26T00:49:32.184Z,102419.83
2019-02-26T00:52:01.109Z,102420.39
2019-02-26T00:54:31.966Z,102410.25
2019-02-26T00:57:01.630Z,102411.22
2019-02-26T00:59:31.133Z,102407.95
2019-02-26T01:01:59.850Z,102424.14
2019-02-26T01:04:28.604Z,102424.14
2019-02-26T01:06:59.129Z,102427.61
2019-02-26T01:09:29.414Z,102429.38
2019-02-26T01:11:58.587Z,102425.94
2019-02-26T01:14:27.446Z,102420.50
2019-02-26T01:16:56.440Z,102415.83
2019-02-26T01:19:25.362Z,102415.89
2019-02-26T01:21:54.098Z,102410.64
2019-02-26T01:24:24.331Z,102414.95
2019-02-26T01:26:53.361Z,102413.98
2019-02-26T01:29:23.091Z,102408.28
2019-02-26T01:31:52.805Z,102408.57
2019-02-26T01:34:21.664Z,102417.94
2019-02-26T01:36:50.372Z,102383.91
2019-02-26T01:39:21.142Z,102372.05
2019-02-26T01:41:51.171Z,102364.21
2019-02-26T01:44:19.965Z,102373.08
2019-02-26T01:46:48.890Z,102364.34
2019-02-26T01:49:19.222Z,102359.84
2019-02-26T01:51:49.723Z,102352.33
2019-02-26T01:54:18.570Z,102349.28
2019-02-26T01:56:47.707Z,102348.97
2019-02-26T01:59:18.927Z,102348.81
2019-02-26T02:01:49.672Z,102331.80
2019-02-26T02:04:19.663Z,102313.33
2019-02-26T02:06:49.328Z,102323.97
2019-02-26T02:09:20.541Z,102321.00
2019-02-26T02:11:50.326Z,102311.52
2019-02-26T02:14:19.868Z,102317.69
2019-02-26T02:16:49.463Z,102319.24
2019-02-26T02:19:20.866Z,102322.56
2019-02-26T02:21:51.496Z,102335.02
2019-02-26T02:24:22.881Z,102332.20
2019-02-26T02:26:53.558Z,102324.02
2019-02-26T02:29:24.634Z,102318.80
2019-02-26T02:31:54.890Z,102317.69
2019-02-26T02:34:26.987Z,102318.23
2019-02-26T02:36:56.838Z,102328.63
2019-02-26T02:39:27.321Z,102342.89
2019-02-26T02:41:57.903Z,102344.30
2019-02-26T02:44:27.333Z,102348.77
2019-02-26T02:46:58.559Z,102363.67
2019-02-26T02:49:29.683Z,102357.69
2019-02-26T02:52:01.454Z,102346.58
2019-02-26T02:54:30.546Z,102353.00
2019-02-26T02:57:02.396Z,102344.19
2019-02-26T02:59:34.031Z,102338.51
2019-02-26T03:02:02.313Z,102334.09
2019-02-26T03:04:34.695Z,102331.38
2019-02-26T03:07:03.294Z,102331.95
2019-02-26T03:09:37.211Z,102332.91
2019-02-26T03:12:04.022Z,102322.19
2019-02-26T03:14:35.785Z,102321.74
2019-02-26T03:17:06.410Z,102317.47
2019-02-26T03:19:38.474Z,102308.27
2019-02-26T03:22:07.803Z,102318.31
2019-02-26T03:24:38.178Z,102317.96
2019-02-26T03:27:08.144Z,102318.42
2019-02-26T03:29:37.581Z,102311.78
2019-02-26T03:32:07.143Z,102318.06
2019-02-26T03:34:36.610Z,102320.22
2019-02-26T03:37:08.182Z,102328.82
2019-02-26T03:39:37.299Z,102340.64
2019-02-26T03:42:08.237Z,102341.11
2019-02-26T03:44:37.973Z,102339.70
2019-02-26T03:47:07.370Z,102349.03
2019-02-26T03:49:37.147Z,102335.47
2019-02-26T03:52:06.559Z,102328.65
2019-02-26T03:54:39.831Z,102329.77
2019-02-26T03:57:09.009Z,102334.94
2019-02-26T03:59:38.567Z,102327.45
2019-02-26T04:02:09.359Z,102340.16
2019-02-26T04:04:39.282Z,102343.62
2019-02-26T04:07:10.676Z,102353.88
2019-02-26T04:09:42.272Z,102359.11
2019-02-26T04:12:13.562Z,102375.44
2019-02-26T04:14:43.484Z,102382.61
2019-02-26T04:17:13.299Z,102387.57
2019-02-26T04:19:44.537Z,102392.25
2019-02-26T04:22:27.747Z,102387.78
2019-02-26T04:25:06.370Z,102392.30
2019-02-26T04:27:52.875Z,102398.02
2019-02-26T04:30:38.975Z,102403.11
2019-02-26T04:33:41.413Z,102403.11
2019-02-26T04:36:26.510Z,102411.35
2019-02-26T04:39:28.103Z,102413.31
2019-02-26T04:42:16.840Z,102415.98
2019-02-26T04:45:05.942Z,102415.72
2019-02-26T04:47:49.580Z,102413.91
2019-02-26T04:50:17.926Z,102406.56
2019-02-26T04:52:48.047Z,102398.43
2019-02-26T04:55:17.739Z,102393.97
2019-02-26T04:57:49.081Z,102395.27
2019-02-26T05:00:18.427Z,102391.00
2019-02-26T05:02:47.875Z,102388.95
2019-02-26T05:05:17.503Z,102393.77
2019-02-26T05:07:49.316Z,102388.95
2019-02-26T05:10:20.384Z,102408.54
2019-02-26T05:12:53.238Z,102411.89
2019-02-26T05:15:23.349Z,102407.58
2019-02-26T05:17:52.552Z,102400.70
2019-02-26T05:20:22.240Z,102400.70
2019-02-26T05:22:58.471Z,102401.90
2019-02-26T05:25:26.583Z,102416.06
2019-02-26T05:27:56.016Z,102422.95
2019-02-26T05:30:25.493Z,102426.45
2019-02-26T05:32:57.230Z,102422.59
2019-02-26T05:35:25.647Z,102427.97
2019-02-26T05:37:56.186Z,102422.39
2019-02-26T05:40:26.304Z,102425.59
2019-02-26T05:42:56.840Z,102421.23
2019-02-26T05:45:29.313Z,102431.19
2019-02-26T05:47:59.014Z,102427.16
2019-02-26T05:50:30.212Z,102435.59
2019-02-26T05:53:01.915Z,102432.44
2019-02-26T05:55:31.112Z,102428.58
2019-02-26T05:58:00.643Z,102427.86
2019-02-26T06:00:33.082Z,102422.63
2019-02-26T06:03:03.074Z,102432.59
2019-02-26T06:05:32.536Z,102434.44
2019-02-26T06:08:01.977Z,102424.20
2019-02-26T06:10:32.591Z,102430.93
2019-02-26T06:13:04.843Z,102420.28
2019-02-26T06:15:34.204Z,102404.86
2019-02-26T06:18:03.932Z,102426.77
2019-02-26T06:20:34.508Z,102426.87
2019-02-26T06:23:04.835Z,102423.66
2019-02-26T06:25:34.330Z,102419.47
2019-02-26T06:28:06.866Z,102430.88
2019-02-26T06:30:35.062Z,102429.27
2019-02-26T06:33:06.593Z,102423.93
2019-02-26T06:35:36.618Z,102418.83
2019-02-26T06:38:09.283Z,102407.16
2019-02-26T06:40:39.299Z,102404.09
2019-02-26T06:43:10.019Z,102421.97
2019-02-26T06:45:41.052Z,102431.23
2019-02-26T06:48:14.619Z,102432.46
2019-02-26T06:50:43.500Z,102425.56
2019-02-26T06:53:13.733Z,102428.20
2019-02-26T06:55:44.185Z,102426.86
2019-02-26T06:58:24.665Z,102431.52
2019-02-26T07:00:55.576Z,102423.66
2019-02-26T07:03:25.133Z,102430.00
2019-02-26T07:05:54.564Z,102431.07
2019-02-26T07:08:25.984Z,102432.56
2019-02-26T07:10:55.436Z,102434.73
2019-02-26T07:13:24.943Z,102444.83
2019-02-26T07:15:54.529Z,102439.60
2019-02-26T07:18:23.950Z,102448.29
2019-02-26T07:20:55.958Z,102456.46
2019-02-26T07:23:24.861Z,102455.97
2019-02-26T07:25:54.378Z,102450.62
2019-02-26T07:28:26.840Z,102443.91
2019-02-26T07:30:55.816Z,102434.91
2019-02-26T07:33:27.260Z,102431.23
2019-02-26T07:35:58.895Z,102423.36
2019-02-26T07:38:27.923Z,102408.48
2019-02-26T07:41:00.828Z,102413.13
2019-02-26T07:43:28.566Z,102413.54
2019-02-26T07:45:58.201Z,102413.53
2019-02-26T07:48:29.513Z,102414.27
2019-02-26T07:50:59.072Z,102418.43
2019-02-26T07:53:28.905Z,102418.78
2019-02-26T07:55:59.590Z,102419.38
2019-02-26T07:58:31.415Z,102425.45
2019-02-26T08:01:01.289Z,102422.66
2019-02-26T08:03:30.859Z,102428.47
2019-02-26T08:06:04.823Z,102423.71
2019-02-26T08:08:31.731Z,102433.48
2019-02-26T08:11:01.376Z,102426.09
2019-02-26T08:13:32.077Z,102412.84
2019-02-26T08:16:04.887Z,102409.19
2019-02-26T08:18:33.797Z,102400.80
2019-02-26T08:21:05.053Z,102405.66
2019-02-26T08:23:34.658Z,102414.95
2019-02-26T08:26:04.207Z,102401.77
2019-02-26T08:28:36.988Z,102406.91
2019-02-26T08:31:06.845Z,102399.95
2019-02-26T08:33:36.565Z,102424.78
2019-02-26T08:36:06.178Z,102419.91
2019-02-26T08:38:35.611Z,102426.28
2019-02-26T08:41:05.079Z,102412.78
2019-02-26T08:43:34.593Z,102419.45
2019-02-26T08:46:04.254Z,102418.07
2019-02-26T08:48:33.858Z,102427.05
2019-02-26T08:51:06.171Z,102430.03
2019-02-26T08:53:35.758Z,102410.13
2019-02-26T08:56:05.455Z,102410.13
2019-02-26T08:58:35.041Z,102426.47
2019-02-26T09:01:05.193Z,102426.47
2019-02-26T09:03:40.626Z,102430.48
2019-02-26T09:06:12.804Z,102421.07
2019-02-26T09:08:38.593Z,102401.73
2019-02-26T09:11:10.799Z,102425.61
2019-02-26T09:13:41.272Z,102436.83
2019-02-26T09:16:11.114Z,102429.61
2019-02-26T09:18:40.764Z,102452.12
2019-02-26T09:21:12.513Z,102461.85
2019-02-26T09:23:41.583Z,102451.78
2019-02-26T09:26:11.031Z,102450.27
2019-02-26T09:28:40.497Z,102442.13
2019-02-26T09:31:12.452Z,102445.24
2019-02-26T09:33:43.446Z,102451.25
2019-02-26T09:36:15.183Z,102449.19
2019-02-26T09:38:44.982Z,102453.36
2019-02-26T09:41:16.687Z,102450.98
2019-02-26T09:43:48.049Z,102461.23
2019-02-26T09:46:19.127Z,102471.47
2019-02-26T09:48:49.021Z,102475.50
2019-02-26T09:51:18.692Z,102476.93
2019-02-26T09:53:50.070Z,102480.45
2019-02-26T09:56:19.711Z,102473.47
2019-02-26T09:58:50.857Z,102478.31
2019-02-26T10:01:20.503Z,102463.70
2019-02-26T10:03:50.192Z,102468.53
2019-02-26T10:06:21.661Z,102465.35
2019-02-26T10:08:53.184Z,102459.27
2019-02-26T10:11:23.097Z,102447.77
2019-02-26T10:13:53.672Z,102445.58
2019-02-26T10:16:25.346Z,102450.84
2019-02-26T10:18:56.773Z,102448.17
2019-02-26T10:21:25.920Z,102454.00
2019-02-26T10:23:56.883Z,102455.28
2019-02-26T10:26:28.690Z,102459.73
2019-02-26T10:29:04.126Z,102453.95
2019-02-26T10:31:29.277Z,102451.59
2019-02-26T10:33:58.892Z,102449.44
2019-02-26T10:36:32.466Z,102449.92
2019-02-26T10:39:00.731Z,102461.92
2019-02-26T10:41:30.877Z,102464.47
2019-02-26T10:44:00.606Z,102465.80
2019-02-26T10:46:32.142Z,102469.30
2019-02-26T10:49:01.526Z,102471.16
2019-02-26T10:51:31.008Z,102477.70
2019-02-26T10:54:02.605Z,102476.52
2019-02-26T10:56:36.765Z,102477.27
2019-02-26T10:59:06.090Z,102483.52
2019-02-26T11:01:34.338Z,102485.98
2019-02-26T11:04:04.605Z,102472.25
2019-02-26T11:06:38.279Z,102478.06
2019-02-26T11:09:09.081Z,102474.70
2019-02-26T11:11:40.001Z,102476.84
2019-02-26T11:14:10.690Z,102477.78
2019-02-26T11:16:41.418Z,102470.19
2019-02-26T11:19:12.393Z,102457.89
2019-02-26T11:21:42.126Z,102455.22
2019-02-26T11:24:11.568Z,102454.47
2019-02-26T11:26:43.731Z,102456.84
2019-02-26T11:29:12.794Z,102455.41
2019-02-26T11:31:44.567Z,102455.09
2019-02-26T11:34:13.542Z,102446.94
2019-02-26T11:36:43.665Z,102436.22
2019-02-26T11:39:13.151Z,102462.34
2019-02-26T11:41:42.582Z,102466.89
2019-02-26T11:44:14.708Z,102458.64
2019-02-26T11:46:44.540Z,102458.88
2019-02-26T11:49:16.877Z,102455.77
2019-02-26T11:51:45.897Z,102455.41
2019-02-26T11:54:17.539Z,102461.86
2019-02-26T11:56:47.305Z,102442.12
2019-02-26T11:59:19.479Z,102443.47
2019-02-26T12:01:49.390Z,102444.23
2019-02-26T12:04:18.841Z,102447.02
2019-02-26T12:06:48.691Z,102450.91
2019-02-26T12:09:18.194Z,102441.48
2019-02-26T12:11:47.647Z,102431.17
2019-02-26T12:14:19.443Z,102433.67
2019-02-26T12:16:48.893Z,102448.20
2019-02-26T12:19:18.625Z,102442.50
2019-02-26T12:21:49.424Z,102442.32
2019-02-26T12:24:19.651Z,102445.89
2019-02-26T12:26:50.100Z,102436.85
2019-02-26T12:29:21.072Z,102431.88
2019-02-26T12:31:53.805Z,102435.62
2019-02-26T12:34:23.631Z,102427.66
2019-02-26T12:36:56.648Z,102438.11
2019-02-26T12:39:25.694Z,102439.19
2019-02-26T12:41:55.898Z,102432.38
2019-02-26T12:44:28.814Z,102442.75
2019-02-26T12:47:00.177Z,102429.95
2019-02-26T12:49:29.419Z,102414.73
2019-02-26T12:52:02.838Z,102434.56
2019-02-26T12:54:33.262Z,102431.19
2019-02-26T12:57:04.180Z,102432.48
2019-02-26T12:59:33.512Z,102439.61
2019-02-26T13:02:05.550Z,102443.02
2019-02-26T13:04:37.425Z,102442.78
2019-02-26T13:07:08.619Z,102449.76
2019-02-26T13:09:41.343Z,102446.27
2019-02-26T13:12:08.556Z,102445.03
2019-02-26T13:14:37.959Z,102448.19
2019-02-26T13:17:07.399Z,102448.08
2019-02-26T13:19:37.305Z,102445.28
2019-02-26T13:22:09.714Z,102435.38
2019-02-26T13:24:38.200Z,102436.45
2019-02-26T13:27:07.726Z,102447.50
2019-02-26T13:29:42.505Z,102449.28
2019-02-26T13:32:13.115Z,102461.92
2019-02-26T13:34:40.091Z,102460.08
2019-02-26T13:37:09.537Z,102462.78
2019-02-26T13:39:41.529Z,102462.13
2019-02-26T13:42:13.979Z,102460.70
2019-02-26T13:44:41.845Z,102452.56
2019-02-26T13:47:11.248Z,102451.20
2019-02-26T13:49:40.803Z,102454.18
2019-02-26T13:52:10.340Z,102458.92
2019-02-26T13:54:39.838Z,102450.37
2019-02-26T13:57:09.454Z,102439.65
2019-02-26T13:59:38.990Z,102446.37
2019-02-26T14:02:08.791Z,102436.30
2019-02-26T14:04:38.291Z,102444.58
2019-02-26T14:07:07.706Z,102440.56
2019-02-26T14:09:37.248Z,102452.33
2019-02-26T14:12:06.704Z,102452.97
2019-02-26T14:14:36.244Z,102455.69
2019-02-26T14:17:05.788Z,102461.88
2019-02-26T14:19:35.424Z,102456.16
2019-02-26T14:22:05.003Z,102460.13
2019-02-26T14:24:34.728Z,102464.69
2019-02-26T14:27:04.879Z,102464.95
2019-02-26T14:29:34.454Z,102455.09
2019-02-26T14:32:04.156Z,102453.77
2019-02-26T14:34:35.417Z,102443.98
2019-02-26T14:37:05.069Z,102447.09
2019-02-26T14:39:34.944Z,102451.66
2019-02-26T14:42:04.545Z,102458.66
2019-02-26T14:44:34.003Z,102461.88
2019-02-26T14:47:03.677Z,102473.36
2019-02-26T14:49:33.271Z,102465.89
2019-02-26T14:52:02.711Z,102466.41
2019-02-26T14:54:32.379Z,102466.48
2019-02-26T14:57:02.010Z,102470.05
2019-02-26T14:59:32.985Z,102471.87
2019-02-26T15:02:02.670Z,102468.23
2019-02-26T15:04:32.502Z,102461.23
2019-02-26T15:07:02.102Z,102465.20
2019-02-26T15:09:32.022Z,102463.11
2019-02-26T15:12:01.585Z,102463.11
2019-02-26T15:14:31.193Z,102455.59
2019-02-26T15:17:00.708Z,102467.58
2019-02-26T15:19:30.253Z,102467.34
2019-02-26T15:21:59.691Z,102471.75
2019-02-26T15:24:29.486Z,102473.42
2019-02-26T15:26:59.041Z,102471.20
2019-02-26T15:29:28.499Z,102480.35
2019-02-26T15:31:58.019Z,102489.00
2019-02-26T15:34:27.629Z,102491.42
2019-02-26T15:36:57.865Z,102489.94
2019-02-26T15:39:27.560Z,102490.95
2019-02-26T15:41:57.094Z,102487.41
2019-02-26T15:44:28.812Z,102489.14
2019-02-26T15:46:59.617Z,102494.84
2019-02-26T15:49:29.504Z,102489.78
2019-02-26T15:51:59.139Z,102482.36
2019-02-26T15:54:28.807Z,102494.31
2019-02-26T15:57:00.504Z,102490.45
2019-02-26T15:59:30.174Z,102506.09
2019-02-26T16:01:59.677Z,102509.28
2019-02-26T16:04:29.521Z,102510.77
2019-02-26T16:06:59.304Z,102517.42
2019-02-26T16:09:28.827Z,102514.33
2019-02-26T16:11:58.648Z,102517.77
2019-02-26T16:14:28.985Z,102515.95
2019-02-26T16:16:58.673Z,102523.48
2019-02-26T16:19:28.182Z,102520.88
2019-02-26T16:21:57.592Z,102515.53
2019-02-26T16:24:27.082Z,102513.06
2019-02-26T16:26:56.576Z,102509.42
2019-02-26T16:29:26.075Z,102519.34
2019-02-26T16:31:57.257Z,102517.32
2019-02-26T16:34:26.973Z,102519.94
2019-02-26T16:36:56.502Z,102523.09
2019-02-26T16:39:26.170Z,102531.92
2019-02-26T16:41:56.168Z,102537.12
2019-02-26T16:44:25.696Z,102544.44
2019-02-26T16:46:55.211Z,102539.98
2019-02-26T16:49:25.834Z,102541.28
2019-02-26T16:51:55.917Z,102544.84
2019-02-26T16:54:25.755Z,102555.16
2019-02-26T16:56:55.480Z,102561.75
2019-02-26T16:59:25.148Z,102565.55
2019-02-26T17:01:54.999Z,102575.75
2019-02-26T17:04:25.199Z,102571.31
2019-02-26T17:06:54.957Z,102571.31
2019-02-26T17:09:24.478Z,102580.11
2019-02-26T17:11:53.903Z,102579.09
2019-02-26T17:14:23.677Z,102581.72
2019-02-26T17:16:53.652Z,102582.75
2019-02-26T17:19:23.297Z,102592.52
2019-02-26T17:21:52.984Z,102587.98
2019-02-26T17:24:22.435Z,102590.56
2019-02-26T17:26:52.050Z,102591.30
2019-02-26T17:29:21.624Z,102594.89
2019-02-26T17:31:51.091Z,102597.66
2019-02-26T17:34:23.523Z,102597.62
2019-02-26T17:36:52.882Z,102592.66
2019-02-26T17:39:23.649Z,102596.55
2019-02-26T17:41:54.122Z,102595.66
2019-02-26T17:44:23.863Z,102595.20
2019-02-26T17:46:53.601Z,102599.75
2019-02-26T17:49:23.124Z,102605.55
2019-02-26T17:51:52.605Z,102602.20
2019-02-26T17:54:22.014Z,102610.27
2019-02-26T17:56:51.736Z,102612.63
2019-02-26T17:59:21.529Z,102614.92
2019-02-26T18:01:51.433Z,102624.80
2019-02-26T18:04:22.917Z,102615.89
2019-02-26T18:06:52.589Z,102614.06
2019-02-26T18:09:22.118Z,102620.70
2019-02-26T18:11:51.661Z,102622.91
2019-02-26T18:14:21.536Z,102623.12
2019-02-26T18:16:51.333Z,102628.58
2019-02-26T18:19:22.162Z,102629.28
2019-02-26T18:21:51.833Z,102625.88
2019-02-26T18:24:21.460Z,102626.69
2019-02-26T18:26:50.908Z,102629.96
2019-02-26T18:29:20.611Z,102636.13
2019-02-26T18:31:50.247Z,102635.88
2019-02-26T18:34:20.608Z,102646.97
2019-02-26T18:36:50.571Z,102644.03
2019-02-26T18:39:22.416Z,102640.20
2019-02-26T18:41:51.618Z,102636.84
2019-02-26T18:44:21.442Z,102643.97
2019-02-26T18:46:50.981Z,102641.17
2019-02-26T18:49:21.904Z,102631.59
2019-02-26T18:51:50.357Z,102636.95
2019-02-26T18:54:20.309Z,102640.66
2019-02-26T18:56:49.635Z,102636.64
2019-02-26T18:59:21.273Z,102635.53
2019-02-26T19:01:48.868Z,102640.73
2019-02-26T19:04:17.875Z,102640.97
2019-02-26T19:06:46.626Z,102637.45
2019-02-26T19:09:16.987Z,102638.70
2019-02-26T19:11:46.026Z,102632.00
2019-02-26T19:14:15.042Z,102637.45
2019-02-26T19:16:44.023Z,102630.48
2019-02-26T19:19:12.990Z,102628.81
2019-02-26T19:21:42.208Z,102628.97
2019-02-26T19:24:11.013Z,102627.72
2019-02-26T19:26:39.856Z,102633.83
2019-02-26T19:29:10.057Z,102641.86
2019-02-26T19:31:42.389Z,102640.17
2019-02-26T19:34:09.688Z,102641.90
2019-02-26T19:36:38.540Z,102641.41
2019-02-26T19:39:07.834Z,102647.73
2019-02-26T19:41:36.565Z,102653.66
2019-02-26T19:44:05.326Z,102642.00
2019-02-26T19:46:34.268Z,102651.84
2019-02-26T19:49:05.565Z,102657.86
2019-02-26T19:51:34.802Z,102656.86
2019-02-26T19:54:04.689Z,102653.92
2019-02-26T19:56:34.476Z,102651.86
2019-02-26T19:59:03.264Z,102648.88
2019-02-26T20:01:31.977Z,102652.38
2019-02-26T20:04:00.780Z,102653.16
2019-02-26T20:06:29.785Z,102655.23
2019-02-26T20:08:58.723Z,102649.41
2019-02-26T20:11:27.669Z,102654.41
2019-02-26T20:14:04.544Z,102666.80
2019-02-26T20:16:27.858Z,102677.41
2019-02-26T20:18:59.154Z,102667.52
2019-02-26T20:21:27.514Z,102680.86
2019-02-26T20:23:56.319Z,102668.92
2019-02-26T20:26:25.055Z,102671.61
2019-02-26T20:28:54.625Z,102684.88
2019-02-26T20:31:23.876Z,102683.89
2019-02-26T20:33:52.571Z,102679.28
2019-02-26T20:36:21.468Z,102691.37
2019-02-26T20:38:50.237Z,102684.98
2019-02-26T20:41:21.851Z,102678.23
2019-02-26T20:43:49.503Z,102678.23
2019-02-26T20:46:18.357Z,102686.48
2019-02-26T20:48:47.062Z,102684.63
2019-02-26T20:51:18.626Z,102683.80
2019-02-26T20:53:46.402Z,102686.73
2019-02-26T20:56:15.342Z,102683.25
2019-02-26T20:58:44.818Z,102685.49
2019-02-26T21:01:14.237Z,102686.22
2019-02-26T21:03:42.993Z,102689.79
2019-02-26T21:06:11.823Z,102691.84
2019-02-26T21:08:40.669Z,102697.63
2019-02-26T21:11:09.480Z,102696.64
2019-02-26T21:13:38.295Z,102691.82
2019-02-26T21:16:07.066Z,102693.83
2019-02-26T21:18:36.177Z,102692.89
2019-02-26T21:21:05.049Z,102685.05
2019-02-26T21:23:33.764Z,102685.26
2019-02-26T21:26:02.535Z,102683.95
2019-02-26T21:28:33.334Z,102685.95
2019-02-26T21:31:01.901Z,102689.08
2019-02-26T21:33:31.388Z,102692.41
2019-02-26T21:36:00.566Z,102677.15
2019-02-26T21:38:29.711Z,102674.53
2019-02-26T21:40:58.643Z,102677.84
2019-02-26T21:43:27.378Z,102674.83
2019-02-26T21:45:56.199Z,102684.72
2019-02-26T21:48:24.943Z,102678.13
2019-02-26T21:50:54.861Z,102672.79
2019-02-26T21:53:24.597Z,102668.03
2019-02-26T21:55:55.555Z,102682.80
2019-02-26T21:58:26.451Z,102682.18
2019-02-26T22:00:54.338Z,102679.46
2019-02-26T22:03:24.801Z,102676.39
2019-02-26T22:05:54.263Z,102670.48
2019-02-26T22:08:24.743Z,102674.18
2019-02-26T22:10:53.644Z,102670.22
2019-02-26T22:13:22.398Z,102672.03
2019-02-26T22:15:51.331Z,102677.02
2019-02-26T22:18:20.195Z,102670.66
2019-02-26T22:20:48.991Z,102667.41
2019-02-26T22:23:17.769Z,102669.41
2019-02-26T22:25:46.677Z,102672.14
2019-02-26T22:28:15.632Z,102673.66
2019-02-26T22:30:44.837Z,102673.45
2019-02-26T22:33:13.828Z,102674.47
2019-02-26T22:35:42.694Z,102677.23
2019-02-26T22:38:15.064Z,102675.20
2019-02-26T22:40:42.052Z,102676.62
2019-02-26T22:43:13.419Z,102670.34
2019-02-26T22:45:41.380Z,102669.08
2019-02-26T22:48:13.456Z,102679.47
2019-02-26T22:50:40.651Z,102686.49
2019-02-26T22:53:09.508Z,102686.68
2019-02-26T22:55:38.263Z,102682.41
2019-02-26T22:58:06.997Z,102691.22
2019-02-26T23:00:51.444Z,102693.42
2019-02-26T23:03:20.277Z,102700.16
2019-02-26T23:05:48.964Z,102700.20
2019-02-26T23:08:17.866Z,102691.17
2019-02-26T23:10:47.783Z,102687.62
2019-02-26T23:13:16.571Z,102685.91
2019-02-26T23:15:45.987Z,102687.53
2019-02-26T23:18:15.380Z,102682.62
2019-02-26T23:20:44.277Z,102689.80
2019-02-26T23:23:13.002Z,102690.75
2019-02-26T23:25:42.454Z,102685.78
2019-02-26T23:28:11.542Z,102683.77
2019-02-26T23:30:40.297Z,102684.14
2019-02-26T23:33:09.313Z,102680.28
2019-02-26T23:35:38.485Z,102678.97
2019-02-26T23:38:08.364Z,102670.48
2019-02-26T23:40:37.668Z,102665.17
2019-02-26T23:43:06.765Z,102672.52
2019-02-26T23:45:35.789Z,102669.53
2019-02-26T23:48:07.730Z,102666.73
2019-02-26T23:50:35.632Z,102660.80
2019-02-26T23:53:04.612Z,102662.59
2019-02-26T23:55:33.337Z,102657.31
2019-02-26T23:58:02.078Z,102663.05
